Time;durP1;ratioP1;P1;durP2;ratioP2;P2;SDS_P1;SDS_P2;PMS_P1;PMS_P2;Temp;Humidity;BMP_temperature;BMP_pressure;BME280_temperature;BME280_humidity;BME280_pressure;Samples;Min_cycle;Max_cycle;Signal;HPM_P1;HPM_P2
2021/06/17 00:00:39;;;;;;;5.70;4.10;;;23.50;78.80;31.40;99630.00;;;;5105452;28;20261;-80
2021/06/17 00:03:05;;;;;;;5.33;3.97;;;23.50;78.90;31.10;99633.00;;;;5088837;28;20181;-79
2021/06/17 00:05:33;;;;;;;5.50;3.80;;;23.50;78.90;31.20;99637.00;;;;5109533;28;20280;-80
2021/06/17 00:07:59;;;;;;;5.17;3.40;;;23.50;79.00;31.20;99629.00;;;;5109699;28;21030;-81
2021/06/17 00:10:31;;;;;;;5.03;3.77;;;23.50;78.90;31.30;99629.00;;;;5109159;28;20452;-80
2021/06/17 00:12:59;;;;;;;5.50;4.10;;;23.50;78.90;31.30;99630.00;;;;5109187;28;20448;-81
2021/06/17 00:15:25;;;;;;;6.50;4.10;;;23.50;78.90;31.50;99635.00;;;;5109100;28;20458;-80
2021/06/17 00:17:51;;;;;;;6.03;4.17;;;23.50;79.00;31.20;99635.00;;;;5093376;28;20945;-80
2021/06/17 00:20:17;;;;;;;6.27;3.50;;;23.50;79.00;31.40;99641.00;;;;5109390;28;20428;-79
2021/06/17 00:22:43;;;;;;;6.00;3.80;;;23.50;79.00;31.20;99650.00;;;;5109450;28;20208;-79
2021/06/17 00:25:09;;;;;;;6.10;4.03;;;23.40;78.90;31.30;99637.00;;;;5109187;28;20484;-80
2021/06/17 00:27:35;;;;;;;5.33;3.50;;;23.40;79.00;31.20;99641.00;;;;5109484;28;20717;-80
2021/06/17 00:30:01;;;;;;;6.13;4.00;;;23.40;79.00;31.20;99639.00;;;;5108442;28;20865;-79
2021/06/17 00:32:27;;;;;;;6.13;4.40;;;23.40;79.00;31.20;99639.00;;;;5093135;28;20205;-80
2021/06/17 00:34:53;;;;;;;5.93;3.80;;;23.40;79.00;31.30;99634.00;;;;5109749;28;20432;-78
2021/06/17 00:37:18;;;;;;;4.97;3.80;;;23.40;79.10;31.20;99626.00;;;;5108703;28;20246;-80
2021/06/17 00:39:44;;;;;;;8.00;3.93;;;23.40;79.10;31.10;99622.00;;;;5109160;28;20181;-76
2021/06/17 00:42:10;;;;;;;5.40;4.10;;;23.40;79.10;31.20;99624.00;;;;5108590;28;20205;-80
2021/06/17 00:44:36;;;;;;;5.63;3.93;;;23.40;79.20;31.30;99631.00;;;;5092019;28;20253;-79
2021/06/17 00:47:02;;;;;;;6.03;4.13;;;23.40;79.20;31.20;99623.00;;;;5093185;28;20470;-79
2021/06/17 00:49:28;;;;;;;5.70;3.90;;;23.40;79.30;31.10;99619.00;;;;5092328;28;20467;-80
2021/06/17 00:51:53;;;;;;;5.60;4.23;;;23.40;79.30;31.30;99627.00;;;;5107913;28;20486;-77
2021/06/17 00:54:32;;;;;;;6.43;4.70;;;23.40;79.30;31.20;99627.00;;;;5093296;28;20419;-79
2021/06/17 00:57:04;;;;;;;5.40;3.97;;;23.40;79.30;31.20;99630.00;;;;5107296;28;20206;-84
2021/06/17 00:59:29;;;;;;;5.40;4.10;;;23.40;79.30;31.20;99635.00;;;;5107976;28;20428;-83
2021/06/17 01:01:56;;;;;;;5.30;4.17;;;23.40;79.40;31.20;99631.00;;;;5108737;28;20426;-83
2021/06/17 01:04:25;;;;;;;5.07;3.97;;;23.40;79.40;31.30;99635.00;;;;5109231;28;20177;-78
2021/06/17 01:06:52;;;;;;;5.63;3.70;;;23.30;79.30;31.30;99632.00;;;;5090827;28;20468;-78
2021/06/17 01:09:49;;;;;;;5.43;3.73;;;23.30;79.40;31.20;99630.00;;;;5093092;28;20475;-78
2021/06/17 01:12:35;;;;;;;5.50;3.60;;;23.30;79.40;31.10;99640.00;;;;5105088;28;20456;-78
2021/06/17 01:15:09;;;;;;;6.03;4.10;;;23.30;79.50;31.20;99634.00;;;;5092749;28;20785;-79
2021/06/17 01:17:45;;;;;;;5.80;4.20;;;23.30;80.30;31.10;99642.00;;;;5091117;28;20614;-79
2021/06/17 01:20:25;;;;;;;5.60;4.17;;;23.30;79.50;31.20;99641.00;;;;5107145;28;20522;-79
2021/06/17 01:23:05;;;;;;;5.63;3.80;;;23.30;79.50;31.20;99640.00;;;;5107449;28;20479;-79
2021/06/17 01:26:04;;;;;;;6.43;4.30;;;23.30;79.60;30.90;99629.00;;;;5091302;28;20451;-79
2021/06/17 01:28:30;;;;;;;4.90;3.60;;;23.30;79.60;31.00;99645.00;;;;5106708;28;20470;-80
2021/06/17 01:31:05;;;;;;;5.40;3.80;;;23.30;79.60;31.10;99643.00;;;;5108485;28;20468;-79
2021/06/17 01:33:39;;;;;;;6.53;4.50;;;23.30;79.70;31.00;99644.00;;;;5090770;28;20435;-79
2021/06/17 01:36:15;;;;;;;5.97;4.17;;;23.30;79.70;31.00;99647.00;;;;5107784;28;20455;-80
2021/06/17 01:38:41;;;;;;;5.40;4.00;;;23.30;79.70;31.20;99632.00;;;;5107609;28;20906;-79
2021/06/17 01:41:07;;;;;;;5.23;4.13;;;23.30;79.70;31.00;99640.00;;;;5107286;28;20555;-80
2021/06/17 01:43:32;;;;;;;6.00;4.07;;;23.30;79.80;31.00;99641.00;;;;5107795;28;20187;-78
2021/06/17 01:45:58;;;;;;;5.23;3.80;;;23.30;79.80;31.00;99632.00;;;;5107961;28;20269;-79
2021/06/17 01:48:24;;;;;;;5.70;4.47;;;23.20;80.50;31.00;99632.00;;;;5107390;28;20215;-78
2021/06/17 01:50:50;;;;;;;6.70;4.43;;;23.20;79.70;30.90;99621.00;;;;5108210;28;20429;-79
2021/06/17 01:53:17;;;;;;;6.60;4.17;;;23.20;79.70;30.90;99631.00;;;;5107731;28;20174;-79
2021/06/17 01:55:43;;;;;;;6.43;4.00;;;23.20;79.70;30.90;99635.00;;;;5107173;28;20186;-80
2021/06/17 01:58:10;;;;;;;5.37;3.37;;;23.20;79.70;31.10;99645.00;;;;5090201;28;20429;-79
2021/06/17 02:00:36;;;;;;;6.30;3.87;;;23.20;79.70;31.00;99631.00;;;;5107564;28;20660;-79
2021/06/17 02:03:05;;;;;;;5.73;4.20;;;23.20;79.70;30.90;99634.00;;;;5106906;28;20518;-79
2021/06/17 02:05:31;;;;;;;5.13;4.10;;;23.20;79.70;30.90;99638.00;;;;5090473;28;20511;-80
2021/06/17 02:07:58;;;;;;;5.50;3.83;;;23.20;79.70;30.90;99629.00;;;;5106766;28;20507;-79
2021/06/17 02:10:24;;;;;;;6.27;4.10;;;23.20;79.70;30.90;99635.00;;;;5090451;28;20434;-79
2021/06/17 02:12:50;;;;;;;7.03;3.93;;;23.20;79.70;30.90;99640.00;;;;5107009;28;20468;-79
2021/06/17 02:15:16;;;;;;;5.37;4.37;;;23.10;79.70;31.00;99634.00;;;;5107207;28;20182;-79
2021/06/17 02:17:43;;;;;;;5.73;4.30;;;23.10;79.70;31.00;99622.00;;;;5089396;28;20591;-79
2021/06/17 02:20:09;;;;;;;5.60;4.20;;;23.20;79.80;31.00;99644.00;;;;5107434;28;20467;-79
2021/06/17 02:22:36;;;;;;;6.23;3.90;;;23.20;79.80;30.90;99634.00;;;;5089429;28;20471;-79
2021/06/17 02:25:03;;;;;;;5.67;3.83;;;23.10;79.70;30.90;99626.00;;;;5107165;28;20458;-79
2021/06/17 02:27:30;;;;;;;6.43;4.10;;;23.10;79.70;30.80;99629.00;;;;5088696;28;20532;-81
2021/06/17 02:30:04;;;;;;;6.13;4.40;;;23.10;79.70;31.00;99630.00;;;;5106302;28;20459;-79
2021/06/17 02:32:30;;;;;;;5.00;3.80;;;23.10;79.70;30.80;99626.00;;;;5105537;28;20470;-81
2021/06/17 02:34:56;;;;;;;5.60;3.70;;;23.10;79.80;30.80;99632.00;;;;5107383;28;20441;-79
2021/06/17 02:37:22;;;;;;;6.63;4.33;;;23.10;79.80;30.80;99632.00;;;;5105519;28;20261;-82
2021/06/17 02:39:49;;;;;;;6.07;4.60;;;23.10;79.80;30.90;99633.00;;;;5106986;28;20446;-79
2021/06/17 02:42:17;;;;;;;5.67;4.27;;;23.10;79.80;30.80;99624.00;;;;5106610;28;20265;-80
2021/06/17 02:44:44;;;;;;;5.60;4.20;;;23.10;79.80;30.80;99627.00;;;;5106137;28;20424;-80
2021/06/17 02:47:11;;;;;;;6.60;4.80;;;23.10;79.80;30.80;99636.00;;;;5106512;28;20494;-81
2021/06/17 02:49:39;;;;;;;5.10;4.00;;;23.10;79.90;30.80;99634.00;;;;5106863;28;20494;-80
2021/06/17 02:52:05;;;;;;;6.17;4.60;;;23.10;79.90;30.80;99627.00;;;;5089979;28;20550;-80
2021/06/17 02:54:31;;;;;;;6.53;4.87;;;23.10;79.90;30.80;99633.00;;;;5089602;28;20443;-79
2021/06/17 02:57:09;;;;;;;6.00;4.30;;;23.00;79.80;30.80;99629.00;;;;5106763;28;20582;-80
2021/06/17 03:00:05;;;;;;;5.60;4.17;;;23.10;80.00;30.90;99625.00;;;;5104948;28;20181;-80
2021/06/17 03:02:52;;;;;;;6.23;4.80;;;23.00;79.90;30.80;99627.00;;;;5090188;28;21000;-81
2021/06/17 03:05:44;;;;;;;6.00;4.90;;;23.00;80.00;30.80;99628.00;;;;5102922;28;20467;-80
2021/06/17 03:08:19;;;;;;;5.83;4.53;;;23.00;80.00;30.90;99615.00;;;;5105991;28;20523;-78
2021/06/17 03:10:51;;;;;;;6.00;4.47;;;23.00;80.00;30.80;99612.00;;;;5106357;28;20939;-79
2021/06/17 03:13:18;;;;;;;6.40;4.97;;;23.00;80.00;30.80;99614.00;;;;5104891;28;20825;-78
2021/06/17 03:15:45;;;;;;;7.57;5.23;;;23.00;80.00;30.90;99612.00;;;;5105877;28;20439;-78
2021/06/17 03:18:11;;;;;;;6.30;4.80;;;23.00;80.10;30.90;99604.00;;;;5105840;28;20438;-79
2021/06/17 03:20:40;;;;;;;6.77;4.77;;;23.00;80.10;30.90;99614.00;;;;5105566;28;20446;-79
2021/06/17 03:23:12;;;;;;;6.77;4.60;;;23.00;80.20;30.80;99610.00;;;;5105653;28;20443;-79
2021/06/17 03:25:39;;;;;;;8.43;4.80;;;23.00;80.10;30.80;99616.00;;;;5105719;28;20435;-79
2021/06/17 03:28:05;;;;;;;6.10;4.70;;;23.00;80.20;30.90;99608.00;;;;5104997;28;20478;-80
2021/06/17 03:30:30;;;;;;;5.53;4.47;;;23.00;80.20;30.80;99604.00;;;;5105642;28;20427;-78
2021/06/17 03:33:00;;;;;;;5.67;4.60;;;23.00;80.30;30.80;99607.00;;;;5105144;28;20288;-77
2021/06/17 03:35:28;;;;;;;6.07;4.57;;;23.00;80.30;30.90;99607.00;;;;5105735;28;20670;-78
2021/06/17 03:37:54;;;;;;;6.53;4.73;;;23.00;80.30;30.80;99603.00;;;;5104173;28;20937;-78
2021/06/17 03:40:20;;;;;;;6.90;4.80;;;22.90;80.30;30.80;99597.00;;;;5105692;28;20941;-78
2021/06/17 03:42:47;;;;;;;6.40;5.30;;;22.90;80.30;30.70;99610.00;;;;5105136;28;20469;-78
2021/06/17 03:45:14;;;;;;;6.90;5.10;;;22.90;80.30;30.70;99612.00;;;;5106096;28;20184;-79
2021/06/17 03:47:42;;;;;;;5.00;4.03;;;22.90;80.30;30.80;99611.00;;;;5104862;28;20627;-79
2021/06/17 03:50:09;;;;;;;5.40;4.17;;;22.90;80.30;30.70;99623.00;;;;5105449;28;20442;-78
2021/06/17 03:52:35;;;;;;;6.00;4.60;;;22.90;80.40;30.80;99616.00;;;;5088826;28;20526;-78
2021/06/17 03:55:00;;;;;;;5.70;4.73;;;22.90;80.40;30.70;99617.00;;;;5105087;28;20975;-78
2021/06/17 03:57:26;;;;;;;6.70;5.27;;;22.90;80.50;30.60;99612.00;;;;5105604;28;20490;-78
2021/06/17 03:59:52;;;;;;;6.20;4.90;;;22.90;80.50;30.70;99616.00;;;;5105402;28;20172;-80
2021/06/17 04:02:18;;;;;;;6.50;4.90;;;22.90;80.60;30.70;99619.00;;;;5105163;28;20273;-79
2021/06/17 04:04:45;;;;;;;6.77;5.03;;;22.90;80.60;30.70;99620.00;;;;5104709;28;20451;-77
2021/06/17 04:07:13;;;;;;;5.80;4.53;;;22.90;80.60;30.70;99608.00;;;;5105752;28;20555;-77
2021/06/17 04:09:40;;;;;;;7.97;5.40;;;22.90;80.60;30.60;99615.00;;;;5104018;28;20455;-76
2021/06/17 04:12:11;;;;;;;5.70;4.70;;;22.90;80.60;30.60;99620.00;;;;5105683;28;20470;-77
2021/06/17 04:14:40;;;;;;;6.90;5.47;;;22.90;80.70;30.60;99613.00;;;;5104790;28;20477;-77
2021/06/17 04:17:07;;;;;;;6.77;5.37;;;22.80;80.60;30.70;99620.00;;;;5104841;28;20459;-77
2021/06/17 04:19:35;;;;;;;5.67;4.60;;;22.80;80.60;30.60;99625.00;;;;5104530;28;20435;-76
2021/06/17 04:22:03;;;;;;;7.30;5.30;;;22.90;80.70;30.50;99618.00;;;;5104745;28;20450;-77
2021/06/17 04:24:32;;;;;;;6.20;4.67;;;22.80;80.70;30.50;99622.00;;;;5104957;28;20949;-76
2021/06/17 04:26:58;;;;;;;6.53;4.90;;;22.90;80.80;30.60;99619.00;;;;5105436;28;20459;-77
2021/06/17 04:29:23;;;;;;;5.93;4.70;;;22.80;80.70;30.50;99595.00;;;;5104581;28;20844;-76
2021/06/17 04:31:50;;;;;;;5.73;4.40;;;22.80;80.70;30.50;99621.00;;;;5105103;28;20634;-77
2021/06/17 04:34:17;;;;;;;6.43;5.30;;;22.80;80.70;30.40;99622.00;;;;5088006;28;20213;-77
2021/06/17 04:36:43;;;;;;;5.97;4.73;;;22.80;80.80;30.60;99617.00;;;;5105137;28;20459;-76
2021/06/17 04:39:09;;;;;;;7.40;5.30;;;22.80;80.80;30.60;99627.00;;;;5105321;28;20813;-76
2021/06/17 04:41:37;;;;;;;7.00;5.00;;;22.80;80.80;30.50;99622.00;;;;5105757;28;20232;-76
2021/06/17 04:44:03;;;;;;;6.30;5.07;;;22.80;80.80;30.50;99615.00;;;;5104695;28;20177;-77
2021/06/17 04:46:30;;;;;;;9.00;5.90;;;22.80;80.80;30.50;99626.00;;;;5105261;28;20453;-77
2021/06/17 04:48:56;;;;;;;5.90;5.13;;;22.80;80.90;30.40;99619.00;;;;5104758;28;20485;-76
2021/06/17 04:51:22;;;;;;;6.23;4.77;;;22.80;81.00;30.30;99617.00;;;;5108462;28;20455;-76
2021/06/17 04:53:50;;;;;;;6.20;5.07;;;22.80;81.00;30.50;99623.00;;;;5108707;28;20794;-76
2021/06/17 04:56:16;;;;;;;7.67;5.80;;;22.80;81.00;30.40;99628.00;;;;5093342;28;20215;-76
2021/06/17 04:58:42;;;;;;;6.33;5.10;;;22.80;81.00;30.40;99611.00;;;;5108161;28;20831;-76
2021/06/17 05:01:08;;;;;;;6.67;5.47;;;22.80;81.10;30.40;99620.00;;;;5108251;28;20212;-76
2021/06/17 05:03:36;;;;;;;6.63;4.70;;;22.80;81.00;30.40;99627.00;;;;5108975;28;20435;-75
2021/06/17 05:06:03;;;;;;;6.23;4.70;;;22.70;80.90;30.30;99625.00;;;;5107193;28;20221;-76
2021/06/17 05:11:13;;;;;;;6.07;4.90;;;22.80;81.00;30.40;99625.00;;;;5105490;28;20998;-76
2021/06/17 05:13:42;;;;;;;7.63;5.07;;;22.80;81.00;30.50;99623.00;;;;5108158;28;20435;-74
2021/06/17 05:16:08;;;;;;;7.23;5.23;;;22.70;80.90;30.60;99632.00;;;;5107382;28;20223;-74
2021/06/17 05:18:34;;;;;;;8.53;5.20;;;22.70;81.00;30.60;99629.00;;;;5107946;28;20431;-75
2021/06/17 05:21:00;;;;;;;7.70;5.37;;;22.70;81.10;30.60;99626.00;;;;5108060;28;20454;-74
2021/06/17 05:23:26;;;;;;;6.63;5.00;;;22.80;81.20;30.60;99636.00;;;;5108784;28;20215;-74
2021/06/17 05:25:54;;;;;;;7.07;5.00;;;22.70;81.10;30.70;99627.00;;;;5106952;28;20283;-74
2021/06/17 05:28:22;;;;;;;6.77;5.13;;;22.70;81.30;30.60;99613.00;;;;5108359;28;20992;-75
2021/06/17 05:30:48;;;;;;;6.97;5.23;;;22.70;81.30;30.50;99630.00;;;;5107309;28;20434;-75
2021/06/17 05:33:14;;;;;;;6.47;5.13;;;22.70;81.30;30.70;99627.00;;;;5107815;28;20434;-74
2021/06/17 05:35:40;;;;;;;7.30;4.80;;;22.70;81.40;30.60;99632.00;;;;5107839;28;20435;-74
2021/06/17 05:38:06;;;;;;;6.63;5.20;;;22.70;81.40;30.50;99625.00;;;;5108478;28;20423;-74
2021/06/17 05:40:32;;;;;;;6.53;5.13;;;22.70;81.50;30.50;99636.00;;;;5106988;28;20215;-75
2021/06/17 05:42:58;;;;;;;9.00;5.43;;;22.70;81.50;30.40;99630.00;;;;5091034;28;20468;-74
2021/06/17 05:45:23;;;;;;;6.03;4.87;;;22.70;81.60;30.50;99631.00;;;;5106996;28;20467;-73
2021/06/17 05:47:49;;;;;;;6.87;5.20;;;22.70;81.60;30.30;99628.00;;;;5107257;28;20204;-75
2021/06/17 05:50:15;;;;;;;6.20;5.40;;;22.70;81.60;30.50;99628.00;;;;5107714;28;20233;-74
2021/06/17 05:52:41;;;;;;;6.17;4.80;;;22.70;81.80;30.40;99638.00;;;;5107765;28;20554;-75
2021/06/17 05:55:07;;;;;;;6.90;5.57;;;22.70;81.90;30.50;99624.00;;;;5091860;28;20194;-74
2021/06/17 05:57:36;;;;;;;5.57;4.93;;;22.70;81.70;30.50;99625.00;;;;5071477;28;20209;-75
2021/06/17 06:00:02;;;;;;;6.47;5.17;;;22.70;81.90;30.50;99628.00;;;;5070688;28;20884;-74
2021/06/17 06:02:28;;;;;;;6.60;4.77;;;22.70;81.90;30.60;99614.00;;;;5051659;28;20481;-75
2021/06/17 06:04:54;;;;;;;6.30;5.10;;;22.70;82.10;30.50;99632.00;;;;5052265;28;20511;-75
2021/06/17 06:07:20;;;;;;;6.27;4.90;;;22.70;82.30;30.60;99629.00;;;;5069443;28;20220;-75
2021/06/17 06:09:45;;;;;;;8.87;4.87;;;22.70;82.10;30.30;99638.00;;;;5070216;28;20172;-75
2021/06/17 06:12:13;;;;;;;7.70;5.50;;;22.70;82.10;30.50;99632.00;;;;5057141;28;20694;-75
2021/06/17 06:14:39;;;;;;;5.60;4.80;;;22.70;82.30;30.40;99635.00;;;;5072503;28;20261;-75
2021/06/17 06:17:05;;;;;;;7.73;4.87;;;22.70;82.30;30.50;99626.00;;;;5089634;28;20575;-75
2021/06/17 06:19:32;;;;;;;6.60;5.40;;;22.70;82.00;30.40;99638.00;;;;5072865;28;20180;-74
2021/06/17 06:21:58;;;;;;;6.40;5.33;;;22.70;82.30;30.60;99635.00;;;;5089873;28;20553;-75
2021/06/17 06:24:23;;;;;;;6.60;4.83;;;22.70;82.30;30.60;99647.00;;;;5090029;28;20527;-74
2021/06/17 06:26:49;;;;;;;6.03;5.23;;;22.70;82.40;30.60;99639.00;;;;5088439;28;20206;-75
2021/06/17 06:29:15;;;;;;;6.20;5.17;;;22.70;82.10;30.40;99647.00;;;;5089318;28;20274;-75
2021/06/17 06:31:41;;;;;;;7.50;5.10;;;22.70;83.10;30.50;99646.00;;;;5090011;28;20208;-75
2021/06/17 06:34:06;;;;;;;5.93;4.77;;;22.70;82.30;30.60;99642.00;;;;5089394;28;20172;-75
2021/06/17 06:36:32;;;;;;;6.30;5.30;;;22.70;82.30;30.60;99646.00;;;;5071776;28;20204;-74
2021/06/17 06:38:58;;;;;;;5.80;4.70;;;22.70;82.30;30.70;99651.00;;;;5089438;28;20192;-75
2021/06/17 06:41:24;;;;;;;5.80;5.10;;;22.70;82.40;30.70;99661.00;;;;5071357;28;20202;-75
2021/06/17 06:43:49;;;;;;;5.87;4.63;;;22.70;82.20;30.60;99658.00;;;;5090324;28;20177;-75
2021/06/17 06:46:16;;;;;;;6.63;5.40;;;22.70;82.40;30.80;99656.00;;;;5088909;28;20192;-76
2021/06/17 06:48:41;;;;;;;6.00;5.07;;;22.70;82.50;30.80;99644.00;;;;5089509;28;20236;-75
2021/06/17 06:51:07;;;;;;;5.20;4.70;;;22.70;82.40;30.70;99654.00;;;;5089020;28;20582;-76
2021/06/17 06:53:33;;;;;;;6.50;5.07;;;22.70;82.40;30.60;99663.00;;;;5089916;28;20552;-75
2021/06/17 06:55:58;;;;;;;5.73;4.60;;;22.80;82.50;30.70;99662.00;;;;5089439;28;20738;-76
2021/06/17 06:58:24;;;;;;;6.30;4.70;;;22.80;82.50;30.50;99655.00;;;;5089968;28;20177;-76
2021/06/17 07:00:50;;;;;;;5.50;4.87;;;22.70;82.20;30.80;99660.00;;;;5089032;28;20178;-75
2021/06/17 07:03:16;;;;;;;6.50;5.30;;;22.70;82.30;30.70;99667.00;;;;5072789;28;20185;-74
2021/06/17 07:05:42;;;;;;;5.60;4.80;;;22.70;82.30;30.80;99662.00;;;;5089649;28;20991;-76
2021/06/17 07:08:10;;;;;;;6.50;4.47;;;22.70;82.30;30.90;99657.00;;;;5089536;28;20224;-75
2021/06/17 07:10:38;;;;;;;5.80;4.70;;;22.70;82.30;30.80;99681.00;;;;5089734;28;20655;-75
2021/06/17 07:13:04;;;;;;;7.43;5.13;;;22.70;82.30;30.80;99674.00;;;;5089460;28;21086;-75
2021/06/17 07:15:30;;;;;;;5.67;4.90;;;22.80;82.40;30.80;99690.00;;;;5088780;28;20480;-75
2021/06/17 07:17:55;;;;;;;6.03;4.67;;;22.70;82.30;30.90;99686.00;;;;5071761;28;20467;-74
2021/06/17 07:20:21;;;;;;;6.23;4.47;;;22.70;82.30;30.70;99676.00;;;;5090473;28;20263;-75
2021/06/17 07:22:47;;;;;;;8.03;5.20;;;22.80;82.30;30.50;99684.00;;;;5088695;28;20225;-76
2021/06/17 07:25:13;;;;;;;6.13;4.90;;;22.70;82.30;30.60;99697.00;;;;5071880;28;20502;-76
2021/06/17 07:27:39;;;;;;;5.20;4.30;;;22.70;82.30;30.50;99686.00;;;;5083827;28;20668;-76
2021/06/17 07:30:06;;;;;;;5.67;4.50;;;22.70;82.40;30.60;99683.00;;;;5088406;28;20508;-74
2021/06/17 07:32:32;;;;;;;5.70;4.60;;;22.80;82.50;30.70;99693.00;;;;5070155;28;20422;-76
2021/06/17 07:34:57;;;;;;;5.60;4.53;;;22.80;82.50;30.50;99693.00;;;;5088351;28;20566;-76
2021/06/17 07:37:23;;;;;;;6.47;4.70;;;22.70;82.30;30.50;99701.00;;;;5088197;28;20286;-76
2021/06/17 07:39:49;;;;;;;6.67;4.70;;;22.80;82.60;30.50;99698.00;;;;5088230;28;20208;-75
2021/06/17 07:42:14;;;;;;;8.23;4.83;;;22.70;82.40;30.50;99712.00;;;;5087120;28;20205;-76
2021/06/17 07:44:40;;;;;;;5.80;4.40;;;22.70;82.40;30.60;99706.00;;;;5088409;28;20188;-75
2021/06/17 07:47:06;;;;;;;5.50;4.50;;;22.80;82.60;30.60;99719.00;;;;5070201;28;20205;-76
2021/06/17 07:49:32;;;;;;;6.17;4.67;;;22.70;82.40;30.60;99717.00;;;;5089086;28;20291;-75
2021/06/17 07:51:58;;;;;;;6.13;5.03;;;22.70;82.40;30.70;99708.00;;;;5088826;28;20197;-76
2021/06/17 07:54:25;;;;;;;5.47;4.30;;;22.80;82.60;30.50;99722.00;;;;5104788;28;20485;-75
2021/06/17 07:56:50;;;;;;;5.70;4.40;;;22.70;82.50;30.70;99720.00;;;;5088022;28;20825;-76
2021/06/17 07:59:18;;;;;;;6.33;4.50;;;22.80;82.60;30.70;99725.00;;;;5105607;28;20431;-76
2021/06/17 08:01:45;;;;;;;5.97;4.60;;;22.80;82.60;30.60;99715.00;;;;5103656;28;20198;-76
2021/06/17 08:04:11;;;;;;;5.90;4.63;;;22.80;82.60;30.70;99715.00;;;;5089444;28;20512;-76
2021/06/17 08:06:37;;;;;;;6.50;5.00;;;22.80;82.70;30.60;99713.00;;;;5103960;28;20862;-76
2021/06/17 08:09:04;;;;;;;6.70;4.70;;;22.80;82.70;30.60;99714.00;;;;5105042;28;20216;-75
2021/06/17 08:11:29;;;;;;;5.60;4.67;;;22.80;82.70;30.50;99722.00;;;;5087971;28;20238;-75
2021/06/17 08:13:55;;;;;;;5.40;4.20;;;22.80;82.70;30.60;99697.00;;;;5105369;28;21158;-76
2021/06/17 08:16:21;;;;;;;6.13;4.43;;;22.80;82.70;30.70;99720.00;;;;5104600;28;20597;-76
2021/06/17 08:18:47;;;;;;;5.60;4.80;;;22.80;82.70;30.40;99714.00;;;;5105643;28;20180;-76
2021/06/17 08:21:12;;;;;;;5.90;4.53;;;22.80;82.70;30.60;99707.00;;;;5089070;28;20761;-75
2021/06/17 08:23:38;;;;;;;5.20;4.37;;;22.80;82.80;30.40;99712.00;;;;5105512;28;20183;-75
2021/06/17 08:26:04;;;;;;;6.53;4.93;;;22.80;82.80;30.40;99719.00;;;;5109422;28;20208;-77
2021/06/17 08:28:30;;;;;;;6.00;4.30;;;22.80;82.80;30.70;99724.00;;;;5108299;28;20213;-77
2021/06/17 08:30:56;;;;;;;6.53;4.60;;;22.80;82.70;30.80;99718.00;;;;5109249;28;20462;-77
2021/06/17 08:33:22;;;;;;;8.73;5.00;;;22.80;83.50;30.80;99717.00;;;;5108923;28;21013;-76
2021/06/17 08:35:52;;;;;;;6.60;5.23;;;22.80;82.80;30.90;99713.00;;;;5108736;28;20450;-76
2021/06/17 08:38:19;;;;;;;8.50;6.17;;;22.90;83.00;31.10;99724.00;;;;5108331;28;20446;-77
2021/06/17 08:40:46;;;;;;;7.43;6.03;;;22.90;82.90;30.90;99713.00;;;;5108490;28;20447;-76
2021/06/17 08:43:12;;;;;;;6.13;5.10;;;22.90;82.90;31.00;99722.00;;;;5092522;28;20436;-76
2021/06/17 08:45:38;;;;;;;8.67;6.43;;;23.00;83.00;31.10;99712.00;;;;5092044;28;20432;-77
2021/06/17 08:48:04;;;;;;;7.93;5.50;;;23.00;83.00;31.20;99722.00;;;;5108800;28;20478;-75
2021/06/17 08:50:30;;;;;;;8.77;5.87;;;23.00;82.90;31.10;99715.00;;;;5091549;28;20188;-77
2021/06/17 08:52:56;;;;;;;8.10;6.40;;;23.00;83.00;31.30;99705.00;;;;5108491;28;21021;-75
2021/06/17 08:55:27;;;;;;;11.87;6.37;;;23.00;83.00;31.20;99713.00;;;;5108594;28;20189;-74
2021/06/17 08:57:54;;;;;;;7.13;5.70;;;23.00;83.00;31.20;99709.00;;;;5107926;28;20666;-75
2021/06/17 09:00:20;;;;;;;12.03;6.20;;;23.10;83.10;31.30;99719.00;;;;5108838;28;20427;-77
2021/06/17 09:03:14;;;;;;;8.60;6.67;;;23.10;83.10;31.30;99694.00;;;;5091983;28;20461;-77
2021/06/17 09:05:48;;;;;;;11.07;6.00;;;23.10;83.10;31.30;99714.00;;;;5072867;28;20256;-76
2021/06/17 09:08:15;;;;;;;9.40;6.30;;;23.10;83.10;31.20;99707.00;;;;5107254;28;20815;-76
2021/06/17 09:10:42;;;;;;;6.83;5.60;;;23.20;83.10;31.40;99690.00;;;;5108073;28;20458;-76
2021/06/17 09:13:09;;;;;;;8.73;6.03;;;23.10;83.10;31.50;99702.00;;;;5108433;28;20816;-76
2021/06/17 09:15:43;;;;;;;7.60;5.87;;;23.20;83.30;31.40;99705.00;;;;5108505;28;20950;-77
2021/06/17 09:18:24;;;;;;;10.17;6.50;;;23.20;83.40;31.40;99701.00;;;;5107097;28;20436;-77
2021/06/17 09:20:54;;;;;;;6.53;5.67;;;23.20;83.40;31.50;99707.00;;;;5108185;28;20443;-76
2021/06/17 09:23:46;;;;;;;8.33;6.00;;;23.20;83.30;31.50;99710.00;;;;5092223;28;20405;-77
2021/06/17 09:26:22;;;;;;;7.90;5.97;;;23.30;83.30;31.40;99713.00;;;;5105421;28;20488;-77
2021/06/17 09:29:05;;;;;;;8.40;6.17;;;23.30;83.10;31.50;99712.00;;;;5107499;28;20475;-77
2021/06/17 09:31:42;;;;;;;8.60;6.43;;;23.30;82.80;31.40;99724.00;;;;5106372;28;20443;-77
2021/06/17 09:34:14;;;;;;;6.87;5.60;;;23.30;82.70;31.60;99714.00;;;;5107481;28;20550;-77
2021/06/17 09:36:40;;;;;;;7.67;6.00;;;23.30;82.60;31.60;99707.00;;;;5107422;28;20463;-77
2021/06/17 09:39:14;;;;;;;7.40;6.20;;;23.40;82.60;31.50;99714.00;;;;5107455;28;20437;-76
2021/06/17 09:41:46;;;;;;;6.93;5.73;;;23.40;82.60;31.60;99708.00;;;;5107468;28;20448;-77
2021/06/17 09:44:33;;;;;;;8.00;6.23;;;23.40;83.60;31.60;99711.00;;;;5107736;28;20531;-76
2021/06/17 09:47:25;;;;;;;9.83;5.90;;;23.40;82.70;31.50;99711.00;;;;5106717;28;20460;-77
2021/06/17 09:49:52;;;;;;;7.43;5.63;;;23.40;82.80;31.60;99703.00;;;;5107165;28;20441;-77
2021/06/17 09:52:18;;;;;;;7.07;6.03;;;23.40;82.80;31.70;99700.00;;;;5107287;28;20551;-78
2021/06/17 09:54:48;;;;;;;7.53;6.70;;;23.50;82.80;31.60;99699.00;;;;5107429;28;20444;-77
2021/06/17 09:57:18;;;;;;;14.43;6.77;;;23.50;82.80;31.70;99701.00;;;;5107069;28;20567;-77
2021/06/17 09:59:53;;;;;;;8.00;5.90;;;23.50;82.90;31.70;99697.00;;;;5106021;28;20437;-77
2021/06/17 10:02:25;;;;;;;7.10;5.93;;;23.50;82.90;31.80;99684.00;;;;5107188;28;20457;-77
2021/06/17 10:04:52;;;;;;;7.30;5.87;;;23.60;82.80;31.80;99705.00;;;;5107022;28;20508;-78
2021/06/17 10:07:19;;;;;;;9.13;6.40;;;23.60;82.60;31.90;99690.00;;;;5106711;28;20998;-77
2021/06/17 10:09:45;;;;;;;7.40;6.10;;;23.60;82.50;31.80;99691.00;;;;5107414;28;20490;-77
2021/06/17 10:12:13;;;;;;;7.60;6.33;;;23.60;82.50;31.90;99680.00;;;;5107203;28;21029;-79
2021/06/17 10:14:39;;;;;;;7.47;5.77;;;23.60;82.50;32.00;99698.00;;;;5090005;28;20486;-78
2021/06/17 10:17:04;;;;;;;7.43;6.30;;;23.70;82.70;32.00;99704.00;;;;5091518;28;20966;-79
2021/06/17 10:19:33;;;;;;;7.50;5.77;;;23.70;82.70;32.00;99698.00;;;;5107349;28;20630;-77
2021/06/17 10:22:00;;;;;;;7.20;5.90;;;23.70;82.40;32.10;99706.00;;;;5106249;28;20214;-78
2021/06/17 10:24:28;;;;;;;7.03;5.53;;;23.70;82.10;32.00;99693.00;;;;5106687;28;20442;-78
2021/06/17 10:26:57;;;;;;;8.60;5.90;;;23.70;81.70;32.00;99683.00;;;;5107140;28;20460;-77
2021/06/17 10:29:28;;;;;;;7.40;5.80;;;23.70;81.40;32.00;99696.00;;;;5105865;28;20479;-78
2021/06/17 10:31:58;;;;;;;8.77;6.20;;;23.80;81.30;32.10;99701.00;;;;5091266;28;20453;-79
2021/06/17 10:34:24;;;;;;;9.23;6.23;;;23.70;81.20;32.10;99689.00;;;;5106271;28;20444;-78
2021/06/17 10:37:29;;;;;;;6.83;5.80;;;23.80;81.20;32.00;99685.00;;;;5106125;28;20841;-79
2021/06/17 10:40:08;;;;;;;8.60;6.90;;;23.80;81.20;32.00;99686.00;;;;5106591;28;20854;-78
2021/06/17 10:42:35;;;;;;;7.93;6.00;;;23.90;81.40;32.10;99691.00;;;;5090404;28;20876;-78
2021/06/17 10:45:20;;;;;;;6.97;6.03;;;23.90;81.40;32.10;99685.00;;;;5106790;28;20468;-79
2021/06/17 10:47:47;;;;;;;9.93;6.57;;;23.90;81.20;32.20;99681.00;;;;5090235;28;20822;-79
2021/06/17 10:50:18;;;;;;;8.50;6.80;;;23.90;81.00;32.20;99677.00;;;;5105766;28;20525;-78
2021/06/17 10:52:45;;;;;;;6.63;5.23;;;23.90;81.00;32.20;99674.00;;;;5090925;28;20548;-79
2021/06/17 10:55:15;;;;;;;7.90;5.80;;;23.90;81.00;32.20;99684.00;;;;5089308;28;20445;-78
2021/06/17 10:57:44;;;;;;;7.20;6.33;;;24.00;81.00;32.10;99675.00;;;;5105499;28;20768;-79
2021/06/17 11:00:25;;;;;;;6.43;5.80;;;24.00;80.80;32.20;99682.00;;;;5090795;28;20438;-78
2021/06/17 11:03:06;;;;;;;7.77;5.80;;;24.00;80.70;32.20;99679.00;;;;5090096;28;20907;-79